SAS79K ESSA-EYVI
Flight info
| Callsign | SAS79K |
|---|---|
| Flight time | 1h 18m |
| Altitude | 35000 |
| Route | BABAP P156 RASEL DCT ASKOR DCT OTNAV |
| Aircraft | A21N/M-SDE2E3FGHIRWXY/LB1 |
Departure
| Time | 2026-05-05 08:56 |
|---|---|
| Airport | Stockholm-Arlanda Airport (ESSA) |
Arrival
| Time | 2026-05-05 10:15 |
|---|---|
| Airport | Vilnius International Airport (EYVI) |
| Time | Latitude | Longitude | Altitude | Speed | Heading |
|---|---|---|---|---|---|
| 2026-05-05 08:34 | 59.65242 | 17.92994 | 141 ft | 0 kts | 70° |
| 2026-05-05 08:47 | 59.65238 | 17.92976 | 141 ft | 2 kts | 68° |
| 2026-05-05 08:47 | 59.65232 | 17.92946 | 141 ft | 2 kts | 65° |
| 2026-05-05 08:48 | 59.65224 | 17.92917 | 141 ft | 2 kts | 58° |
| 2026-05-05 08:48 | 59.65214 | 17.92892 | 141 ft | 2 kts | 35° |
| 2026-05-05 08:48 | 59.65199 | 17.92888 | 140 ft | 2 kts | 327° |
| 2026-05-05 08:48 | 59.65193 | 17.92897 | 140 ft | 0 kts | 311° |
| 2026-05-05 08:50 | 59.65199 | 17.92884 | 141 ft | 2 kts | 310° |
| 2026-05-05 08:51 | 59.65212 | 17.92853 | 140 ft | 3 kts | 301° |
| 2026-05-05 08:51 | 59.65221 | 17.92796 | 140 ft | 5 kts | 285° |
| 2026-05-05 08:51 | 59.65232 | 17.92719 | 140 ft | 6 kts | 284° |
| 2026-05-05 08:51 | 59.65247 | 17.92628 | 141 ft | 8 kts | 289° |
| 2026-05-05 08:52 | 59.65268 | 17.92524 | 141 ft | 9 kts | 292° |
| 2026-05-05 08:52 | 59.65290 | 17.92411 | 141 ft | 9 kts | 290° |
| 2026-05-05 08:52 | 59.65319 | 17.92292 | 141 ft | 10 kts | 316° |
| 2026-05-05 08:52 | 59.65385 | 17.92286 | 141 ft | 11 kts | 9° |
| 2026-05-05 08:53 | 59.65465 | 17.92316 | 141 ft | 14 kts | 11° |
| 2026-05-05 08:53 | 59.65585 | 17.92359 | 141 ft | 21 kts | 11° |
| 2026-05-05 08:53 | 59.65740 | 17.92417 | 141 ft | 24 kts | 11° |
| 2026-05-05 08:53 | 59.65909 | 17.92472 | 141 ft | 25 kts | 12° |
| 2026-05-05 08:54 | 59.66077 | 17.92536 | 141 ft | 24 kts | 11° |
| 2026-05-05 08:54 | 59.66245 | 17.92597 | 141 ft | 24 kts | 11° |
| 2026-05-05 08:54 | 59.66410 | 17.92656 | 141 ft | 22 kts | 7° |
| 2026-05-05 08:54 | 59.66535 | 17.92605 | 141 ft | 16 kts | 340° |
| 2026-05-05 08:55 | 59.66616 | 17.92489 | 143 ft | 13 kts | 284° |
| 2026-05-05 08:55 | 59.66556 | 17.92349 | 144 ft | 20 kts | 193° |
| 2026-05-05 08:55 | 59.66306 | 17.92255 | 146 ft | 64 kts | 191° |
| 2026-05-05 08:55 | 59.65652 | 17.92021 | 147 ft | 128 kts | 191° |
| 2026-05-05 08:56 | 59.64591 | 17.91661 | 269 ft | 169 kts | 192° |
| 2026-05-05 08:56 | 59.63418 | 17.91243 | 830 ft | 174 kts | 195° |
| 2026-05-05 08:56 | 59.62222 | 17.90737 | 1496 ft | 177 kts | 200° |
| 2026-05-05 08:56 | 59.61027 | 17.90109 | 2187 ft | 179 kts | 199° |
| 2026-05-05 08:57 | 59.59808 | 17.89499 | 2888 ft | 183 kts | 197° |
| 2026-05-05 08:57 | 59.58553 | 17.88924 | 3555 ft | 188 kts | 198° |
| 2026-05-05 08:57 | 59.57217 | 17.88600 | 4110 ft | 200 kts | 179° |
| 2026-05-05 08:57 | 59.55834 | 17.89388 | 4536 ft | 223 kts | 146° |
| 2026-05-05 08:58 | 59.54829 | 17.91851 | 4923 ft | 239 kts | 122° |
| 2026-05-05 08:58 | 59.54066 | 17.94756 | 5018 ft | 240 kts | 108° |
| 2026-05-05 08:58 | 59.53832 | 17.98062 | 4978 ft | 249 kts | 81° |
| 2026-05-05 08:58 | 59.54402 | 18.01314 | 5048 ft | 261 kts | 49° |
| 2026-05-05 08:59 | 59.55668 | 18.03919 | 5542 ft | 271 kts | 37° |
| 2026-05-05 08:59 | 59.57103 | 18.06373 | 6424 ft | 276 kts | 36° |
| 2026-05-05 08:59 | 59.58578 | 18.08879 | 7222 ft | 284 kts | 36° |
| 2026-05-05 08:59 | 59.60087 | 18.11485 | 8024 ft | 293 kts | 37° |
| 2026-05-05 09:00 | 59.61463 | 18.14567 | 8806 ft | 308 kts | 57° |
| 2026-05-05 09:00 | 59.62366 | 18.18464 | 9642 ft | 317 kts | 68° |
| 2026-05-05 09:00 | 59.63119 | 18.22670 | 10236 ft | 334 kts | 70° |
| 2026-05-05 09:00 | 59.63893 | 18.27180 | 10578 ft | 359 kts | 70° |
| 2026-05-05 09:01 | 59.64720 | 18.31985 | 10989 ft | 379 kts | 70° |
| 2026-05-05 09:01 | 59.65588 | 18.37005 | 11642 ft | 391 kts | 70° |
| 2026-05-05 09:01 | 59.66081 | 18.40467 | 12086 ft | 399 kts | 78° |
| 2026-05-05 09:01 | 59.66021 | 18.47814 | 13025 ft | 405 kts | 109° |
| 2026-05-05 09:02 | 59.65348 | 18.51222 | 13507 ft | 401 kts | 125° |
| 2026-05-05 09:02 | 59.63645 | 18.55447 | 14204 ft | 387 kts | 149° |
| 2026-05-05 09:02 | 59.61400 | 18.58088 | 14969 ft | 368 kts | 167° |
| 2026-05-05 09:02 | 59.59012 | 18.59803 | 15826 ft | 365 kts | 171° |
| 2026-05-05 09:03 | 59.56593 | 18.61365 | 16573 ft | 368 kts | 172° |
| 2026-05-05 09:03 | 59.54148 | 18.62941 | 17300 ft | 372 kts | 172° |
| 2026-05-05 09:03 | 59.51677 | 18.64556 | 18015 ft | 376 kts | 172° |
| 2026-05-05 09:03 | 59.49184 | 18.66203 | 18627 ft | 380 kts | 171° |
| 2026-05-05 09:04 | 59.46668 | 18.67875 | 19222 ft | 384 kts | 171° |
| 2026-05-05 09:04 | 59.44131 | 18.69588 | 19826 ft | 389 kts | 169° |
| 2026-05-05 09:04 | 59.41620 | 18.71799 | 20441 ft | 402 kts | 161° |
| 2026-05-05 09:04 | 59.39178 | 18.74609 | 20982 ft | 411 kts | 157° |
| 2026-05-05 09:05 | 59.36772 | 18.77719 | 21565 ft | 417 kts | 155° |
| 2026-05-05 09:05 | 59.34377 | 18.80982 | 22139 ft | 421 kts | 154° |
| 2026-05-05 09:05 | 59.32002 | 18.84262 | 22698 ft | 425 kts | 154° |
| 2026-05-05 09:05 | 59.29575 | 18.87596 | 23255 ft | 428 kts | 154° |
| 2026-05-05 09:06 | 59.27123 | 18.90922 | 23707 ft | 430 kts | 155° |
| 2026-05-05 09:06 | 59.24647 | 18.94239 | 24134 ft | 433 kts | 155° |
| 2026-05-05 09:06 | 59.22150 | 18.97554 | 24556 ft | 435 kts | 155° |
| 2026-05-05 09:06 | 59.19631 | 19.00875 | 24971 ft | 438 kts | 155° |
| 2026-05-05 09:07 | 59.17096 | 19.04204 | 25379 ft | 440 kts | 155° |
| 2026-05-05 09:07 | 59.14544 | 19.07546 | 25770 ft | 443 kts | 155° |
| 2026-05-05 09:07 | 59.11981 | 19.10895 | 26168 ft | 445 kts | 155° |
| 2026-05-05 09:07 | 59.09398 | 19.14268 | 26553 ft | 448 kts | 155° |
| 2026-05-05 09:08 | 59.06802 | 19.17652 | 26926 ft | 450 kts | 155° |
| 2026-05-05 09:08 | 59.04196 | 19.21045 | 27290 ft | 453 kts | 155° |
| 2026-05-05 09:08 | 59.01571 | 19.24455 | 27609 ft | 455 kts | 155° |
| 2026-05-05 09:08 | 58.98924 | 19.27846 | 27963 ft | 456 kts | 156° |
| 2026-05-05 09:09 | 58.96247 | 19.31172 | 28289 ft | 457 kts | 157° |
| 2026-05-05 09:09 | 58.93550 | 19.34460 | 28636 ft | 459 kts | 157° |
| 2026-05-05 09:09 | 58.90835 | 19.37742 | 28921 ft | 461 kts | 156° |
| 2026-05-05 09:09 | 58.88122 | 19.41017 | 29464 ft | 458 kts | 156° |
| 2026-05-05 09:10 | 58.85431 | 19.44271 | 29956 ft | 456 kts | 156° |
| 2026-05-05 09:10 | 58.82743 | 19.47518 | 30310 ft | 455 kts | 156° |
| 2026-05-05 09:10 | 58.80061 | 19.50755 | 30643 ft | 455 kts | 156° |
| 2026-05-05 09:10 | 58.77382 | 19.53984 | 30989 ft | 454 kts | 156° |
| 2026-05-05 09:11 | 58.74705 | 19.57207 | 31320 ft | 453 kts | 157° |
| 2026-05-05 09:11 | 58.72037 | 19.60413 | 31655 ft | 452 kts | 157° |
| 2026-05-05 09:11 | 58.69368 | 19.63614 | 31977 ft | 451 kts | 157° |
| 2026-05-05 09:11 | 58.66705 | 19.66802 | 32291 ft | 451 kts | 157° |
| 2026-05-05 09:12 | 58.64045 | 19.69977 | 32587 ft | 449 kts | 156° |
| 2026-05-05 09:12 | 58.61399 | 19.73135 | 32920 ft | 448 kts | 156° |
| 2026-05-05 09:12 | 58.58754 | 19.76284 | 33219 ft | 447 kts | 156° |
| 2026-05-05 09:12 | 58.56113 | 19.79420 | 33460 ft | 447 kts | 156° |
| 2026-05-05 09:13 | 58.53507 | 19.82510 | 33711 ft | 446 kts | 156° |
| 2026-05-05 09:13 | 58.50865 | 19.85636 | 33970 ft | 446 kts | 156° |
| 2026-05-05 09:13 | 58.48228 | 19.88753 | 34163 ft | 446 kts | 156° |
| 2026-05-05 09:13 | 58.45585 | 19.91870 | 34337 ft | 446 kts | 156° |
| 2026-05-05 09:14 | 58.42940 | 19.94984 | 34508 ft | 447 kts | 156° |
| 2026-05-05 09:14 | 58.40290 | 19.98098 | 34672 ft | 447 kts | 156° |
| 2026-05-05 09:14 | 58.37635 | 20.01213 | 34812 ft | 449 kts | 156° |
| 2026-05-05 09:15 | 58.32310 | 20.07445 | 34846 ft | 449 kts | 156° |
| 2026-05-05 09:15 | 58.26983 | 20.13660 | 34844 ft | 449 kts | 155° |
| 2026-05-05 09:16 | 58.21666 | 20.19844 | 34849 ft | 448 kts | 155° |
| 2026-05-05 09:16 | 58.16354 | 20.26000 | 34851 ft | 447 kts | 155° |
| 2026-05-05 09:17 | 58.11074 | 20.32095 | 34853 ft | 447 kts | 155° |
| 2026-05-05 09:17 | 58.05760 | 20.38206 | 34856 ft | 447 kts | 155° |
| 2026-05-05 09:18 | 58.00573 | 20.44776 | 34860 ft | 451 kts | 150° |
| 2026-05-05 09:18 | 57.95513 | 20.51811 | 34859 ft | 452 kts | 149° |
| 2026-05-05 09:19 | 57.90475 | 20.58911 | 34850 ft | 452 kts | 149° |
| 2026-05-05 09:19 | 57.85439 | 20.65988 | 34859 ft | 452 kts | 149° |
| 2026-05-05 09:20 | 57.80392 | 20.73037 | 34860 ft | 452 kts | 149° |
| 2026-05-05 09:20 | 57.75344 | 20.80049 | 34867 ft | 452 kts | 149° |
| 2026-05-05 09:21 | 57.70292 | 20.87039 | 34868 ft | 452 kts | 149° |
| 2026-05-05 09:21 | 57.65236 | 20.94010 | 34868 ft | 452 kts | 149° |
| 2026-05-05 09:22 | 57.60177 | 21.00963 | 34868 ft | 451 kts | 149° |
| 2026-05-05 09:22 | 57.55150 | 21.07846 | 34868 ft | 451 kts | 149° |
| 2026-05-05 09:23 | 57.50074 | 21.14771 | 34866 ft | 453 kts | 150° |
| 2026-05-05 09:23 | 57.44989 | 21.21683 | 34867 ft | 453 kts | 150° |
| 2026-05-05 09:24 | 57.39895 | 21.28588 | 34862 ft | 453 kts | 150° |
| 2026-05-05 09:24 | 57.34799 | 21.35469 | 34828 ft | 453 kts | 150° |
| 2026-05-05 09:25 | 57.29694 | 21.42337 | 34859 ft | 454 kts | 150° |
| 2026-05-05 09:25 | 57.24583 | 21.49189 | 34862 ft | 454 kts | 151° |
| 2026-05-05 09:26 | 57.19466 | 21.56027 | 34871 ft | 454 kts | 151° |
| 2026-05-05 09:26 | 57.14348 | 21.62841 | 34881 ft | 454 kts | 151° |
| 2026-05-05 09:27 | 57.09228 | 21.69635 | 34890 ft | 453 kts | 151° |
| 2026-05-05 09:27 | 57.04139 | 21.76362 | 34866 ft | 454 kts | 151° |
| 2026-05-05 09:28 | 56.99001 | 21.83129 | 34883 ft | 455 kts | 151° |
| 2026-05-05 09:28 | 56.93856 | 21.89885 | 34870 ft | 455 kts | 152° |
| 2026-05-05 09:29 | 56.88711 | 21.96619 | 34873 ft | 455 kts | 152° |
| 2026-05-05 09:29 | 56.83562 | 22.03334 | 34877 ft | 455 kts | 152° |
| 2026-05-05 09:30 | 56.78410 | 22.10028 | 34876 ft | 455 kts | 152° |
| 2026-05-05 09:30 | 56.73250 | 22.16709 | 34873 ft | 456 kts | 152° |
| 2026-05-05 09:31 | 56.68079 | 22.23381 | 34871 ft | 456 kts | 152° |
| 2026-05-05 09:31 | 56.62897 | 22.30046 | 34870 ft | 456 kts | 152° |
| 2026-05-05 09:32 | 56.57711 | 22.36694 | 34868 ft | 456 kts | 152° |
| 2026-05-05 09:32 | 56.52563 | 22.43271 | 34873 ft | 456 kts | 152° |
| 2026-05-05 09:33 | 56.47375 | 22.49875 | 34844 ft | 456 kts | 152° |
| 2026-05-05 09:33 | 56.42164 | 22.56484 | 34870 ft | 457 kts | 152° |
| 2026-05-05 09:34 | 56.37017 | 22.63224 | 34873 ft | 460 kts | 148° |
| 2026-05-05 09:34 | 56.32062 | 22.70539 | 34870 ft | 460 kts | 147° |
| 2026-05-05 09:35 | 56.27121 | 22.77872 | 34869 ft | 460 kts | 147° |
| 2026-05-05 09:35 | 56.19697 | 22.88817 | 34870 ft | 460 kts | 148° |
| 2026-05-05 09:36 | 56.14741 | 22.96088 | 34868 ft | 460 kts | 148° |
| 2026-05-05 09:36 | 56.09782 | 23.03336 | 34872 ft | 460 kts | 148° |
| 2026-05-05 09:37 | 56.04831 | 23.10550 | 34579 ft | 456 kts | 148° |
| 2026-05-05 09:37 | 56.02375 | 23.14121 | 33948 ft | 455 kts | 148° |
| 2026-05-05 09:37 | 55.99910 | 23.17694 | 33101 ft | 456 kts | 148° |
| 2026-05-05 09:38 | 55.97476 | 23.21217 | 32437 ft | 455 kts | 148° |
| 2026-05-05 09:38 | 55.94990 | 23.24810 | 31675 ft | 454 kts | 148° |
| 2026-05-05 09:38 | 55.92561 | 23.28316 | 30958 ft | 454 kts | 148° |
| 2026-05-05 09:38 | 55.90114 | 23.31843 | 30357 ft | 451 kts | 148° |
| 2026-05-05 09:39 | 55.87679 | 23.35350 | 29780 ft | 448 kts | 148° |
| 2026-05-05 09:39 | 55.85264 | 23.38820 | 29153 ft | 444 kts | 148° |
| 2026-05-05 09:39 | 55.82872 | 23.42252 | 28519 ft | 440 kts | 148° |
| 2026-05-05 09:39 | 55.80504 | 23.45641 | 27935 ft | 435 kts | 148° |
| 2026-05-05 09:40 | 55.78152 | 23.49002 | 27360 ft | 431 kts | 148° |
| 2026-05-05 09:40 | 55.75829 | 23.52317 | 26808 ft | 427 kts | 148° |
| 2026-05-05 09:40 | 55.73520 | 23.55597 | 26066 ft | 421 kts | 141° |
| 2026-05-05 09:40 | 55.71248 | 23.58827 | 25676 ft | 418 kts | 145° |
| 2026-05-05 09:41 | 55.68960 | 23.62074 | 24779 ft | 424 kts | 147° |
| 2026-05-05 09:41 | 55.66657 | 23.65337 | 24197 ft | 422 kts | 147° |
| 2026-05-05 09:41 | 55.64342 | 23.68397 | 23930 ft | 409 kts | 150° |
| 2026-05-05 09:41 | 55.62050 | 23.71312 | 23881 ft | 404 kts | 150° |
| 2026-05-05 09:42 | 55.59758 | 23.74187 | 23871 ft | 404 kts | 150° |
| 2026-05-05 09:42 | 55.57475 | 23.77030 | 23533 ft | 400 kts | 151° |
| 2026-05-05 09:42 | 55.55205 | 23.79834 | 22935 ft | 397 kts | 151° |
| 2026-05-05 09:42 | 55.52945 | 23.82613 | 22347 ft | 394 kts | 151° |
| 2026-05-05 09:43 | 55.50704 | 23.85359 | 21772 ft | 391 kts | 151° |
| 2026-05-05 09:43 | 55.48509 | 23.88044 | 21216 ft | 387 kts | 151° |
| 2026-05-05 09:43 | 55.46276 | 23.90771 | 20671 ft | 384 kts | 151° |
| 2026-05-05 09:43 | 55.44084 | 23.93442 | 20134 ft | 381 kts | 151° |
| 2026-05-05 09:44 | 55.41913 | 23.96083 | 19599 ft | 378 kts | 151° |
| 2026-05-05 09:44 | 55.39784 | 23.98670 | 19055 ft | 376 kts | 150° |
| 2026-05-05 09:44 | 55.37643 | 24.01267 | 18520 ft | 373 kts | 150° |
| 2026-05-05 09:44 | 55.35512 | 24.03850 | 17979 ft | 370 kts | 150° |
| 2026-05-05 09:45 | 55.33400 | 24.06407 | 17399 ft | 367 kts | 150° |
| 2026-05-05 09:45 | 55.31305 | 24.08939 | 16850 ft | 364 kts | 150° |
| 2026-05-05 09:45 | 55.29231 | 24.11442 | 16303 ft | 360 kts | 150° |
| 2026-05-05 09:45 | 55.27176 | 24.13921 | 15782 ft | 357 kts | 150° |
| 2026-05-05 09:46 | 55.25136 | 24.16377 | 15245 ft | 354 kts | 150° |
| 2026-05-05 09:46 | 55.23113 | 24.18809 | 14734 ft | 351 kts | 150° |
| 2026-05-05 09:46 | 55.21107 | 24.21217 | 14233 ft | 347 kts | 150° |
| 2026-05-05 09:46 | 55.19127 | 24.23593 | 13747 ft | 344 kts | 150° |
| 2026-05-05 09:47 | 55.17161 | 24.25947 | 13182 ft | 341 kts | 150° |
| 2026-05-05 09:47 | 55.15211 | 24.28280 | 12620 ft | 338 kts | 150° |
| 2026-05-05 09:47 | 55.13275 | 24.30594 | 12061 ft | 336 kts | 150° |
| 2026-05-05 09:47 | 55.11352 | 24.32889 | 11508 ft | 334 kts | 150° |
| 2026-05-05 09:48 | 55.09442 | 24.35166 | 10991 ft | 331 kts | 150° |
| 2026-05-05 09:48 | 55.07575 | 24.37391 | 10482 ft | 328 kts | 150° |
| 2026-05-05 09:48 | 55.05714 | 24.39605 | 10215 ft | 318 kts | 150° |
| 2026-05-05 09:48 | 55.03925 | 24.41736 | 10022 ft | 305 kts | 150° |
| 2026-05-05 09:49 | 55.02145 | 24.43842 | 9934 ft | 316 kts | 151° |
| 2026-05-05 09:49 | 55.00297 | 24.46022 | 9922 ft | 323 kts | 150° |
| 2026-05-05 09:49 | 54.98430 | 24.48231 | 9921 ft | 325 kts | 150° |
| 2026-05-05 09:49 | 54.96573 | 24.50432 | 9904 ft | 318 kts | 150° |
| 2026-05-05 09:50 | 54.94792 | 24.52547 | 9905 ft | 302 kts | 151° |
| 2026-05-05 09:50 | 54.93075 | 24.54577 | 9919 ft | 297 kts | 151° |
| 2026-05-05 09:50 | 54.91367 | 24.56585 | 9911 ft | 298 kts | 151° |
| 2026-05-05 09:50 | 54.89597 | 24.58654 | 9925 ft | 316 kts | 151° |
| 2026-05-05 09:51 | 54.87753 | 24.60816 | 9813 ft | 321 kts | 150° |
| 2026-05-05 09:51 | 54.85907 | 24.62990 | 9315 ft | 317 kts | 150° |
| 2026-05-05 09:51 | 54.84123 | 24.65097 | 9097 ft | 304 kts | 151° |
| 2026-05-05 09:51 | 54.82408 | 24.67116 | 8835 ft | 293 kts | 151° |
| 2026-05-05 09:52 | 54.80730 | 24.69082 | 8424 ft | 290 kts | 151° |
| 2026-05-05 09:52 | 54.79062 | 24.71027 | 7991 ft | 288 kts | 151° |
| 2026-05-05 09:52 | 54.77408 | 24.72957 | 7539 ft | 286 kts | 151° |
| 2026-05-05 09:52 | 54.75758 | 24.74883 | 7107 ft | 285 kts | 150° |
| 2026-05-05 09:53 | 54.74121 | 24.76793 | 6666 ft | 283 kts | 150° |
| 2026-05-05 09:53 | 54.72496 | 24.78685 | 6242 ft | 281 kts | 150° |
| 2026-05-05 09:53 | 54.70875 | 24.80571 | 5782 ft | 280 kts | 150° |
| 2026-05-05 09:53 | 54.69808 | 24.81812 | 5482 ft | 278 kts | 150° |
| 2026-05-05 09:54 | 54.68206 | 24.83673 | 5089 ft | 276 kts | 149° |
| 2026-05-05 09:54 | 54.66622 | 24.85519 | 5012 ft | 276 kts | 149° |
| 2026-05-05 09:54 | 54.64512 | 24.87976 | 4988 ft | 275 kts | 149° |
| 2026-05-05 09:54 | 54.62965 | 24.89763 | 4991 ft | 261 kts | 149° |
| 2026-05-05 09:55 | 54.61480 | 24.91484 | 4993 ft | 255 kts | 150° |
| 2026-05-05 09:55 | 54.60008 | 24.93182 | 5004 ft | 255 kts | 150° |
| 2026-05-05 09:55 | 54.59030 | 24.94373 | 4995 ft | 256 kts | 145° |
| 2026-05-05 09:55 | 54.57691 | 24.96418 | 4993 ft | 258 kts | 140° |
| 2026-05-05 09:56 | 54.56399 | 24.98580 | 5000 ft | 259 kts | 139° |
| 2026-05-05 09:56 | 54.55117 | 25.00763 | 4992 ft | 258 kts | 139° |
| 2026-05-05 09:56 | 54.53855 | 25.02906 | 4996 ft | 257 kts | 139° |
| 2026-05-05 09:56 | 54.52603 | 25.05029 | 4989 ft | 248 kts | 139° |
| 2026-05-05 09:57 | 54.51381 | 25.07094 | 4992 ft | 245 kts | 139° |
| 2026-05-05 09:57 | 54.50163 | 25.09142 | 4996 ft | 245 kts | 139° |
| 2026-05-05 09:57 | 54.48949 | 25.11207 | 5002 ft | 246 kts | 136° |
| 2026-05-05 09:57 | 54.48057 | 25.13711 | 4989 ft | 250 kts | 105° |
| 2026-05-05 09:58 | 54.48118 | 25.16658 | 4952 ft | 250 kts | 68° |
| 2026-05-05 09:58 | 54.49127 | 25.18993 | 4485 ft | 242 kts | 30° |
| 2026-05-05 09:58 | 54.50602 | 25.20183 | 4066 ft | 229 kts | 17° |
| 2026-05-05 09:58 | 54.52085 | 25.21062 | 3646 ft | 223 kts | 16° |
| 2026-05-05 09:59 | 54.53512 | 25.21916 | 3299 ft | 210 kts | 17° |
| 2026-05-05 09:59 | 54.54846 | 25.22754 | 2809 ft | 200 kts | 18° |
| 2026-05-05 09:59 | 54.56120 | 25.23584 | 2357 ft | 191 kts | 19° |
| 2026-05-05 09:59 | 54.57330 | 25.24371 | 2071 ft | 178 kts | 18° |
| 2026-05-05 10:00 | 54.58396 | 25.25132 | 1959 ft | 154 kts | 19° |
| 2026-05-05 10:00 | 54.59383 | 25.25808 | 1667 ft | 156 kts | 17° |
| 2026-05-05 10:00 | 54.60401 | 25.26517 | 1247 ft | 159 kts | 19° |
| 2026-05-05 10:00 | 54.61417 | 25.27200 | 847 ft | 159 kts | 20° |
| 2026-05-05 10:01 | 54.62428 | 25.27893 | 634 ft | 150 kts | 21° |
| 2026-05-05 10:01 | 54.63320 | 25.28507 | 630 ft | 118 kts | 21° |
| 2026-05-05 10:01 | 54.64149 | 25.29084 | 775 ft | 148 kts | 21° |
| 2026-05-05 10:01 | 54.65135 | 25.29785 | 1221 ft | 142 kts | 19° |
| 2026-05-05 10:02 | 54.66088 | 25.30425 | 1655 ft | 157 kts | 17° |
| 2026-05-05 10:02 | 54.67158 | 25.31052 | 2341 ft | 165 kts | 14° |
| 2026-05-05 10:02 | 54.68292 | 25.31686 | 2943 ft | 181 kts | 19° |
| 2026-05-05 10:02 | 54.69538 | 25.32594 | 3361 ft | 205 kts | 21° |
| 2026-05-05 10:03 | 54.70899 | 25.33618 | 3744 ft | 222 kts | 21° |
| 2026-05-05 10:03 | 54.72365 | 25.34695 | 4267 ft | 236 kts | 20° |
| 2026-05-05 10:03 | 54.73957 | 25.35480 | 4781 ft | 237 kts | 356° |
| 2026-05-05 10:03 | 54.75508 | 25.34913 | 4974 ft | 224 kts | 325° |
| 2026-05-05 10:04 | 54.76602 | 25.33111 | 5006 ft | 216 kts | 297° |
| 2026-05-05 10:04 | 54.77268 | 25.30785 | 4998 ft | 216 kts | 290° |
| 2026-05-05 10:04 | 54.77836 | 25.28360 | 4991 ft | 217 kts | 289° |
| 2026-05-05 10:04 | 54.78386 | 25.25925 | 4999 ft | 218 kts | 288° |
| 2026-05-05 10:05 | 54.78598 | 25.23385 | 4995 ft | 213 kts | 259° |
| 2026-05-05 10:05 | 54.77967 | 25.21107 | 4988 ft | 213 kts | 227° |
| 2026-05-05 10:05 | 54.76744 | 25.19610 | 5007 ft | 219 kts | 211° |
| 2026-05-05 10:05 | 54.75367 | 25.18435 | 4998 ft | 222 kts | 209° |
| 2026-05-05 10:06 | 54.73962 | 25.17313 | 4994 ft | 223 kts | 208° |
| 2026-05-05 10:06 | 54.72552 | 25.16191 | 4992 ft | 223 kts | 208° |
| 2026-05-05 10:06 | 54.71146 | 25.15075 | 4996 ft | 223 kts | 208° |
| 2026-05-05 10:06 | 54.69741 | 25.13962 | 4979 ft | 222 kts | 208° |
| 2026-05-05 10:07 | 54.68341 | 25.12847 | 4646 ft | 221 kts | 208° |
| 2026-05-05 10:07 | 54.66948 | 25.11727 | 4274 ft | 222 kts | 208° |
| 2026-05-05 10:07 | 54.65551 | 25.10589 | 3881 ft | 222 kts | 208° |
| 2026-05-05 10:07 | 54.64159 | 25.09424 | 3517 ft | 222 kts | 208° |
| 2026-05-05 10:08 | 54.62779 | 25.08249 | 3219 ft | 221 kts | 208° |
| 2026-05-05 10:08 | 54.61413 | 25.07065 | 2982 ft | 221 kts | 209° |
| 2026-05-05 10:08 | 54.60041 | 25.05881 | 2993 ft | 221 kts | 208° |
| 2026-05-05 10:08 | 54.58665 | 25.04694 | 2983 ft | 220 kts | 208° |
| 2026-05-05 10:09 | 54.57317 | 25.03546 | 2989 ft | 219 kts | 207° |
| 2026-05-05 10:09 | 54.55880 | 25.02638 | 2999 ft | 223 kts | 187° |
| 2026-05-05 10:09 | 54.54365 | 25.03081 | 3022 ft | 227 kts | 158° |
| 2026-05-05 10:09 | 54.52973 | 25.04425 | 3001 ft | 231 kts | 150° |
| 2026-05-05 10:10 | 54.51632 | 25.05968 | 2998 ft | 232 kts | 149° |
| 2026-05-05 10:10 | 54.50399 | 25.07755 | 2996 ft | 234 kts | 131° |
| 2026-05-05 10:10 | 54.49539 | 25.10142 | 3010 ft | 236 kts | 120° |
| 2026-05-05 10:10 | 54.48797 | 25.12663 | 2990 ft | 235 kts | 118° |
| 2026-05-05 10:11 | 54.48194 | 25.15279 | 2985 ft | 238 kts | 99° |
| 2026-05-05 10:11 | 54.48347 | 25.18063 | 2843 ft | 235 kts | 69° |
| 2026-05-05 10:11 | 54.49383 | 25.20138 | 2705 ft | 232 kts | 25° |
| 2026-05-05 10:11 | 54.50919 | 25.20843 | 2697 ft | 230 kts | 7° |
| 2026-05-05 10:12 | 54.52498 | 25.21328 | 2717 ft | 230 kts | 10° |
| 2026-05-05 10:12 | 54.54021 | 25.22090 | 2583 ft | 228 kts | 18° |
| 2026-05-05 10:12 | 54.55474 | 25.23101 | 2122 ft | 220 kts | 20° |
| 2026-05-05 10:12 | 54.56838 | 25.24044 | 1787 ft | 202 kts | 18° |
| 2026-05-05 10:13 | 54.58078 | 25.24888 | 1539 ft | 181 kts | 20° |
| 2026-05-05 10:13 | 54.59204 | 25.25667 | 1288 ft | 169 kts | 19° |
| 2026-05-05 10:13 | 54.60249 | 25.26394 | 1103 ft | 156 kts | 19° |
| 2026-05-05 10:13 | 54.61230 | 25.27078 | 877 ft | 148 kts | 19° |
| 2026-05-05 10:14 | 54.62188 | 25.27731 | 691 ft | 149 kts | 20° |
| 2026-05-05 10:14 | 54.63113 | 25.28357 | 626 ft | 132 kts | 21° |
| 2026-05-05 10:14 | 54.63740 | 25.28801 | 641 ft | 63 kts | 22° |
| 2026-05-05 10:14 | 54.64111 | 25.29056 | 642 ft | 51 kts | 23° |
| 2026-05-05 10:15 | 54.64301 | 25.29149 | 648 ft | 11 kts | 330° |
| 2026-05-05 10:15 | 54.64332 | 25.29034 | 649 ft | 15 kts | 267° |
| 2026-05-05 10:15 | 54.64325 | 25.28831 | 647 ft | 14 kts | 269° |
| 2026-05-05 10:15 | 54.64324 | 25.28722 | 647 ft | 6 kts | 267° |
| 2026-05-05 10:16 | 54.64323 | 25.28708 | 647 ft | 0 kts | 268° |
| 2026-05-05 10:16 | 54.64323 | 25.28699 | 647 ft | 2 kts | 267° |
| 2026-05-05 10:16 | 54.64309 | 25.28650 | 648 ft | 7 kts | 213° |
| 2026-05-05 10:17 | 54.64246 | 25.28644 | 645 ft | 8 kts | 182° |
| 2026-05-05 10:17 | 54.64217 | 25.28557 | 644 ft | 11 kts | 265° |
| 2026-05-05 10:17 | 54.64208 | 25.28411 | 643 ft | 11 kts | 263° |
| 2026-05-05 10:17 | 54.64194 | 25.28321 | 643 ft | 0 kts | 249° |
| 2026-05-05 10:18 | 54.64193 | 25.28319 | 642 ft | 2 kts | 248° |
| 2026-05-05 10:18 | 54.64197 | 25.28286 | 648 ft | 4 kts | 309° |
| 2026-05-05 10:18 | 54.64211 | 25.28273 | 642 ft | 2 kts | 349° |
| 2026-05-05 10:18 | 54.64229 | 25.28273 | 642 ft | 0 kts | 2° |